sensor_id;sensor_type;location;lat;lon;timestamp;P1;durP1;ratioP1;P2;durP2;ratioP2
3447;SDS011;1738;49.500;17.736;2022-10-13T00:01:57;41.67;;;22.20;;
3447;SDS011;1738;49.500;17.736;2022-10-13T00:04:23;38.13;;;24.47;;
3447;SDS011;1738;49.500;17.736;2022-10-13T00:06:49;40.53;;;24.50;;
3447;SDS011;1738;49.500;17.736;2022-10-13T00:09:15;38.07;;;23.30;;
3447;SDS011;1738;49.500;17.736;2022-10-13T00:11:41;36.03;;;23.67;;
3447;SDS011;1738;49.500;17.736;2022-10-13T00:14:07;37.27;;;23.50;;
3447;SDS011;1738;49.500;17.736;2022-10-13T00:16:32;26.80;;;20.58;;
3447;SDS011;1738;49.500;17.736;2022-10-13T00:18:58;30.13;;;22.23;;
3447;SDS011;1738;49.500;17.736;2022-10-13T00:21:25;31.80;;;22.73;;
3447;SDS011;1738;49.500;17.736;2022-10-13T00:23:51;32.80;;;21.53;;
3447;SDS011;1738;49.500;17.736;2022-10-13T00:26:16;42.70;;;23.13;;
3447;SDS011;1738;49.500;17.736;2022-10-13T00:28:42;31.48;;;22.37;;
3447;SDS011;1738;49.500;17.736;2022-10-13T00:31:13;41.90;;;22.40;;
3447;SDS011;1738;49.500;17.736;2022-10-13T00:33:38;39.70;;;23.83;;
3447;SDS011;1738;49.500;17.736;2022-10-13T00:36:04;30.77;;;21.10;;
3447;SDS011;1738;49.500;17.736;2022-10-13T00:38:30;33.57;;;21.30;;
3447;SDS011;1738;49.500;17.736;2022-10-13T00:40:56;28.30;;;21.97;;
3447;SDS011;1738;49.500;17.736;2022-10-13T00:43:23;33.30;;;21.20;;
3447;SDS011;1738;49.500;17.736;2022-10-13T00:45:48;31.97;;;21.93;;
3447;SDS011;1738;49.500;17.736;2022-10-13T00:48:15;37.60;;;22.80;;
3447;SDS011;1738;49.500;17.736;2022-10-13T00:50:40;36.43;;;21.60;;
3447;SDS011;1738;49.500;17.736;2022-10-13T00:53:06;33.75;;;20.45;;
3447;SDS011;1738;49.500;17.736;2022-10-13T00:55:33;35.23;;;21.13;;
3447;SDS011;1738;49.500;17.736;2022-10-13T00:57:58;34.70;;;24.80;;
3447;SDS011;1738;49.500;17.736;2022-10-13T01:00:24;38.80;;;21.07;;
3447;SDS011;1738;49.500;17.736;2022-10-13T01:02:50;28.37;;;19.23;;
3447;SDS011;1738;49.500;17.736;2022-10-13T01:05:16;37.53;;;23.30;;
3447;SDS011;1738;49.500;17.736;2022-10-13T01:07:41;38.70;;;22.40;;
3447;SDS011;1738;49.500;17.736;2022-10-13T01:10:07;34.20;;;21.50;;
3447;SDS011;1738;49.500;17.736;2022-10-13T01:12:38;28.90;;;20.80;;
3447;SDS011;1738;49.500;17.736;2022-10-13T01:15:09;27.17;;;20.80;;
3447;SDS011;1738;49.500;17.736;2022-10-13T01:17:39;31.90;;;20.60;;
3447;SDS011;1738;49.500;17.736;2022-10-13T01:22:38;36.70;;;23.43;;
3447;SDS011;1738;49.500;17.736;2022-10-13T01:25:10;32.23;;;20.93;;
3447;SDS011;1738;49.500;17.736;2022-10-13T01:27:37;32.73;;;21.60;;
3447;SDS011;1738;49.500;17.736;2022-10-13T01:30:04;28.30;;;18.87;;
3447;SDS011;1738;49.500;17.736;2022-10-13T01:33:40;30.40;;;20.50;;
3447;SDS011;1738;49.500;17.736;2022-10-13T01:35:12;27.77;;;19.90;;
3447;SDS011;1738;49.500;17.736;2022-10-13T01:37:44;29.67;;;19.33;;
3447;SDS011;1738;49.500;17.736;2022-10-13T01:40:11;26.93;;;18.43;;
3447;SDS011;1738;49.500;17.736;2022-10-13T01:42:38;35.03;;;20.70;;
3447;SDS011;1738;49.500;17.736;2022-10-13T01:45:01;31.60;;;17.77;;
3447;SDS011;1738;49.500;17.736;2022-10-13T01:47:27;27.97;;;19.73;;
3447;SDS011;1738;49.500;17.736;2022-10-13T01:49:52;26.33;;;17.40;;
3447;SDS011;1738;49.500;17.736;2022-10-13T01:52:18;28.38;;;17.65;;
3447;SDS011;1738;49.500;17.736;2022-10-13T01:54:49;33.27;;;17.77;;
3447;SDS011;1738;49.500;17.736;2022-10-13T01:59:46;26.20;;;17.07;;
3447;SDS011;1738;49.500;17.736;2022-10-13T02:02:16;33.40;;;18.53;;
3447;SDS011;1738;49.500;17.736;2022-10-13T02:04:42;22.10;;;16.02;;
3447;SDS011;1738;49.500;17.736;2022-10-13T02:07:08;24.30;;;15.93;;
3447;SDS011;1738;49.500;17.736;2022-10-13T02:10:05;21.80;;;16.50;;
3447;SDS011;1738;49.500;17.736;2022-10-13T02:12:15;23.20;;;15.70;;
3447;SDS011;1738;49.500;17.736;2022-10-13T02:14:40;22.60;;;16.00;;
3447;SDS011;1738;49.500;17.736;2022-10-13T02:17:05;24.40;;;16.20;;
3447;SDS011;1738;49.500;17.736;2022-10-13T02:19:32;22.90;;;17.13;;
3447;SDS011;1738;49.500;17.736;2022-10-13T02:21:57;26.03;;;16.90;;
3447;SDS011;1738;49.500;17.736;2022-10-13T02:24:23;25.90;;;15.60;;
3447;SDS011;1738;49.500;17.736;2022-10-13T02:26:49;20.77;;;15.60;;
3447;SDS011;1738;49.500;17.736;2022-10-13T02:29:15;25.50;;;16.17;;
3447;SDS011;1738;49.500;17.736;2022-10-13T02:31:41;22.35;;;15.93;;
3447;SDS011;1738;49.500;17.736;2022-10-13T02:34:06;24.00;;;15.60;;
3447;SDS011;1738;49.500;17.736;2022-10-13T02:36:32;24.63;;;16.50;;
3447;SDS011;1738;49.500;17.736;2022-10-13T02:38:58;26.60;;;16.60;;
3447;SDS011;1738;49.500;17.736;2022-10-13T02:41:24;26.20;;;15.00;;
3447;SDS011;1738;49.500;17.736;2022-10-13T02:43:50;24.17;;;17.07;;
3447;SDS011;1738;49.500;17.736;2022-10-13T02:46:16;25.17;;;15.87;;
3447;SDS011;1738;49.500;17.736;2022-10-13T02:48:42;24.50;;;14.32;;
3447;SDS011;1738;49.500;17.736;2022-10-13T02:51:08;27.70;;;16.83;;
3447;SDS011;1738;49.500;17.736;2022-10-13T02:53:33;24.13;;;16.50;;
3447;SDS011;1738;49.500;17.736;2022-10-13T02:55:59;24.87;;;15.30;;
3447;SDS011;1738;49.500;17.736;2022-10-13T02:58:25;21.17;;;16.03;;
3447;SDS011;1738;49.500;17.736;2022-10-13T03:00:51;21.67;;;15.73;;
3447;SDS011;1738;49.500;17.736;2022-10-13T03:03:17;31.23;;;16.40;;
3447;SDS011;1738;49.500;17.736;2022-10-13T03:05:43;19.47;;;14.93;;
3447;SDS011;1738;49.500;17.736;2022-10-13T03:08:08;30.40;;;16.12;;
3447;SDS011;1738;49.500;17.736;2022-10-13T03:10:34;27.23;;;15.53;;
3447;SDS011;1738;49.500;17.736;2022-10-13T03:13:00;26.07;;;14.33;;
3447;SDS011;1738;49.500;17.736;2022-10-13T03:15:26;24.87;;;16.63;;
3447;SDS011;1738;49.500;17.736;2022-10-13T03:17:52;23.83;;;15.33;;
3447;SDS011;1738;49.500;17.736;2022-10-13T03:20:18;22.13;;;15.80;;
3447;SDS011;1738;49.500;17.736;2022-10-13T03:22:43;21.10;;;14.60;;
3447;SDS011;1738;49.500;17.736;2022-10-13T03:25:09;21.87;;;16.27;;
3447;SDS011;1738;49.500;17.736;2022-10-13T03:27:35;26.10;;;15.93;;
3447;SDS011;1738;49.500;17.736;2022-10-13T03:30:01;25.97;;;15.80;;
3447;SDS011;1738;49.500;17.736;2022-10-13T03:32:28;23.55;;;16.12;;
3447;SDS011;1738;49.500;17.736;2022-10-13T03:34:53;20.40;;;15.87;;
3447;SDS011;1738;49.500;17.736;2022-10-13T03:37:19;25.00;;;15.77;;
3447;SDS011;1738;49.500;17.736;2022-10-13T03:39:44;22.93;;;15.87;;
3447;SDS011;1738;49.500;17.736;2022-10-13T03:42:10;22.67;;;15.90;;
3447;SDS011;1738;49.500;17.736;2022-10-13T03:44:36;27.17;;;17.07;;
3447;SDS011;1738;49.500;17.736;2022-10-13T03:47:02;22.10;;;15.63;;
3447;SDS011;1738;49.500;17.736;2022-10-13T03:49:28;24.20;;;16.23;;
3447;SDS011;1738;49.500;17.736;2022-10-13T03:51:54;25.30;;;16.17;;
3447;SDS011;1738;49.500;17.736;2022-10-13T03:54:20;25.90;;;15.47;;
3447;SDS011;1738;49.500;17.736;2022-10-13T03:56:45;27.07;;;17.07;;
3447;SDS011;1738;49.500;17.736;2022-10-13T03:59:11;21.23;;;14.57;;
3447;SDS011;1738;49.500;17.736;2022-10-13T04:01:37;22.23;;;13.80;;
3447;SDS011;1738;49.500;17.736;2022-10-13T04:04:03;25.30;;;14.93;;
3447;SDS011;1738;49.500;17.736;2022-10-13T04:06:29;24.40;;;15.33;;
3447;SDS011;1738;49.500;17.736;2022-10-13T04:08:55;20.83;;;14.15;;
3447;SDS011;1738;49.500;17.736;2022-10-13T04:11:21;20.37;;;13.93;;
3447;SDS011;1738;49.500;17.736;2022-10-13T04:13:47;20.20;;;15.47;;
3447;SDS011;1738;49.500;17.736;2022-10-13T04:16:15;24.70;;;15.40;;
3447;SDS011;1738;49.500;17.736;2022-10-13T04:18:40;22.80;;;15.17;;
3447;SDS011;1738;49.500;17.736;2022-10-13T04:21:06;25.63;;;14.40;;
3447;SDS011;1738;49.500;17.736;2022-10-13T04:23:31;25.03;;;16.57;;
3447;SDS011;1738;49.500;17.736;2022-10-13T04:25:57;21.53;;;14.63;;
3447;SDS011;1738;49.500;17.736;2022-10-13T04:28:23;20.87;;;15.50;;
3447;SDS011;1738;49.500;17.736;2022-10-13T04:30:49;20.17;;;15.00;;
3447;SDS011;1738;49.500;17.736;2022-10-13T04:33:15;24.17;;;16.15;;
3447;SDS011;1738;49.500;17.736;2022-10-13T04:35:41;30.20;;;15.60;;
3447;SDS011;1738;49.500;17.736;2022-10-13T04:38:07;22.70;;;15.27;;
3447;SDS011;1738;49.500;17.736;2022-10-13T04:40:33;32.00;;;21.57;;
3447;SDS011;1738;49.500;17.736;2022-10-13T04:42:59;36.17;;;28.60;;
3447;SDS011;1738;49.500;17.736;2022-10-13T04:45:25;28.63;;;18.00;;
3447;SDS011;1738;49.500;17.736;2022-10-13T04:47:51;26.23;;;15.90;;
3447;SDS011;1738;49.500;17.736;2022-10-13T04:50:17;22.77;;;16.17;;
3447;SDS011;1738;49.500;17.736;2022-10-13T04:52:43;21.10;;;15.33;;
3447;SDS011;1738;49.500;17.736;2022-10-13T04:55:09;26.75;;;20.77;;
3447;SDS011;1738;49.500;17.736;2022-10-13T04:57:35;35.90;;;23.20;;
3447;SDS011;1738;49.500;17.736;2022-10-13T05:00:02;43.27;;;30.67;;
3447;SDS011;1738;49.500;17.736;2022-10-13T05:02:27;106.13;;;68.63;;
3447;SDS011;1738;49.500;17.736;2022-10-13T05:04:53;32.47;;;20.13;;
3447;SDS011;1738;49.500;17.736;2022-10-13T05:07:19;32.07;;;18.10;;
3447;SDS011;1738;49.500;17.736;2022-10-13T05:09:45;42.13;;;30.63;;
3447;SDS011;1738;49.500;17.736;2022-10-13T05:12:10;45.67;;;33.07;;
3447;SDS011;1738;49.500;17.736;2022-10-13T05:14:36;42.00;;;27.07;;
3447;SDS011;1738;49.500;17.736;2022-10-13T05:17:02;49.50;;;33.70;;
3447;SDS011;1738;49.500;17.736;2022-10-13T05:19:28;32.50;;;19.20;;
3447;SDS011;1738;49.500;17.736;2022-10-13T05:21:54;31.48;;;24.05;;
3447;SDS011;1738;49.500;17.736;2022-10-13T05:24:20;25.83;;;14.73;;
3447;SDS011;1738;49.500;17.736;2022-10-13T05:26:46;23.10;;;14.00;;
3447;SDS011;1738;49.500;17.736;2022-10-13T05:29:13;39.60;;;33.77;;
3447;SDS011;1738;49.500;17.736;2022-10-13T05:31:39;25.20;;;17.60;;
3447;SDS011;1738;49.500;17.736;2022-10-13T05:34:05;23.80;;;14.87;;
3447;SDS011;1738;49.500;17.736;2022-10-13T05:36:32;22.60;;;15.30;;
3447;SDS011;1738;49.500;17.736;2022-10-13T05:38:58;29.00;;;16.87;;
3447;SDS011;1738;49.500;17.736;2022-10-13T05:41:24;23.73;;;16.07;;
3447;SDS011;1738;49.500;17.736;2022-10-13T05:43:50;22.43;;;15.83;;
3447;SDS011;1738;49.500;17.736;2022-10-13T05:46:15;21.17;;;15.37;;
3447;SDS011;1738;49.500;17.736;2022-10-13T05:48:41;24.30;;;15.67;;
3447;SDS011;1738;49.500;17.736;2022-10-13T05:51:09;25.30;;;16.17;;
3447;SDS011;1738;49.500;17.736;2022-10-13T05:53:33;22.40;;;15.53;;
3447;SDS011;1738;49.500;17.736;2022-10-13T05:55:59;25.55;;;16.75;;
3447;SDS011;1738;49.500;17.736;2022-10-13T05:58:24;21.30;;;14.70;;
3447;SDS011;1738;49.500;17.736;2022-10-13T06:00:50;31.60;;;15.87;;
3447;SDS011;1738;49.500;17.736;2022-10-13T06:03:16;21.07;;;15.63;;
3447;SDS011;1738;49.500;17.736;2022-10-13T06:05:42;51.80;;;32.80;;
3447;SDS011;1738;49.500;17.736;2022-10-13T06:08:08;41.20;;;33.33;;
3447;SDS011;1738;49.500;17.736;2022-10-13T06:10:35;25.80;;;15.90;;
3447;SDS011;1738;49.500;17.736;2022-10-13T06:12:59;29.83;;;20.47;;
3447;SDS011;1738;49.500;17.736;2022-10-13T06:15:25;23.47;;;14.63;;
3447;SDS011;1738;49.500;17.736;2022-10-13T06:17:51;22.30;;;15.90;;
3447;SDS011;1738;49.500;17.736;2022-10-13T06:20:17;25.90;;;16.57;;
3447;SDS011;1738;49.500;17.736;2022-10-13T06:22:43;26.93;;;17.73;;
3447;SDS011;1738;49.500;17.736;2022-10-13T06:25:09;33.53;;;20.43;;
3447;SDS011;1738;49.500;17.736;2022-10-13T06:27:34;41.73;;;31.07;;
3447;SDS011;1738;49.500;17.736;2022-10-13T06:30:00;21.30;;;15.37;;
3447;SDS011;1738;49.500;17.736;2022-10-13T06:32:26;21.30;;;13.33;;
3447;SDS011;1738;49.500;17.736;2022-10-13T06:34:52;23.13;;;15.53;;
3447;SDS011;1738;49.500;17.736;2022-10-13T06:37:19;20.23;;;14.37;;
3447;SDS011;1738;49.500;17.736;2022-10-13T06:39:44;24.83;;;16.27;;
3447;SDS011;1738;49.500;17.736;2022-10-13T06:42:10;20.40;;;13.23;;
3447;SDS011;1738;49.500;17.736;2022-10-13T06:44:36;21.63;;;13.33;;
3447;SDS011;1738;49.500;17.736;2022-10-13T06:47:02;21.63;;;15.20;;
3447;SDS011;1738;49.500;17.736;2022-10-13T06:49:28;23.23;;;14.43;;
3447;SDS011;1738;49.500;17.736;2022-10-13T06:51:54;21.67;;;13.80;;
3447;SDS011;1738;49.500;17.736;2022-10-13T06:54:19;16.00;;;11.07;;
3447;SDS011;1738;49.500;17.736;2022-10-13T06:56:45;15.17;;;9.40;;
3447;SDS011;1738;49.500;17.736;2022-10-13T06:59:11;19.50;;;12.43;;
3447;SDS011;1738;49.500;17.736;2022-10-13T07:01:37;21.50;;;10.50;;
3447;SDS011;1738;49.500;17.736;2022-10-13T07:04:03;18.33;;;11.80;;
3447;SDS011;1738;49.500;17.736;2022-10-13T07:06:29;23.20;;;12.87;;
3447;SDS011;1738;49.500;17.736;2022-10-13T07:08:55;16.50;;;11.67;;
3447;SDS011;1738;49.500;17.736;2022-10-13T07:11:21;16.93;;;11.80;;
3447;SDS011;1738;49.500;17.736;2022-10-13T07:13:47;15.90;;;10.30;;
3447;SDS011;1738;49.500;17.736;2022-10-13T07:16:13;17.00;;;10.80;;
3447;SDS011;1738;49.500;17.736;2022-10-13T07:18:39;19.23;;;11.37;;
3447;SDS011;1738;49.500;17.736;2022-10-13T07:21:05;16.33;;;12.10;;
3447;SDS011;1738;49.500;17.736;2022-10-13T07:23:30;15.10;;;11.43;;
3447;SDS011;1738;49.500;17.736;2022-10-13T07:25:56;14.50;;;10.50;;
3447;SDS011;1738;49.500;17.736;2022-10-13T07:28:23;19.73;;;11.07;;
3447;SDS011;1738;49.500;17.736;2022-10-13T07:30:49;14.13;;;9.77;;
3447;SDS011;1738;49.500;17.736;2022-10-13T07:33:14;17.57;;;10.50;;
3447;SDS011;1738;49.500;17.736;2022-10-13T07:35:40;16.23;;;10.20;;
3447;SDS011;1738;49.500;17.736;2022-10-13T07:38:06;16.73;;;10.40;;
3447;SDS011;1738;49.500;17.736;2022-10-13T07:40:32;11.23;;;8.73;;
3447;SDS011;1738;49.500;17.736;2022-10-13T07:42:58;14.50;;;9.43;;
3447;SDS011;1738;49.500;17.736;2022-10-13T07:45:24;19.50;;;10.10;;
3447;SDS011;1738;49.500;17.736;2022-10-13T07:47:50;13.90;;;10.53;;
3447;SDS011;1738;49.500;17.736;2022-10-13T07:50:15;15.70;;;11.70;;
3447;SDS011;1738;49.500;17.736;2022-10-13T07:52:41;15.10;;;11.37;;
3447;SDS011;1738;49.500;17.736;2022-10-13T07:55:07;20.67;;;9.40;;
3447;SDS011;1738;49.500;17.736;2022-10-13T07:57:33;14.50;;;10.50;;
3447;SDS011;1738;49.500;17.736;2022-10-13T07:59:59;15.90;;;9.87;;
3447;SDS011;1738;49.500;17.736;2022-10-13T08:02:25;16.43;;;10.47;;
3447;SDS011;1738;49.500;17.736;2022-10-13T08:04:51;15.87;;;10.87;;
3447;SDS011;1738;49.500;17.736;2022-10-13T08:07:17;18.13;;;10.50;;
3447;SDS011;1738;49.500;17.736;2022-10-13T08:09:43;13.83;;;9.13;;
3447;SDS011;1738;49.500;17.736;2022-10-13T08:12:09;15.20;;;10.33;;
3447;SDS011;1738;49.500;17.736;2022-10-13T08:14:34;19.03;;;10.40;;
3447;SDS011;1738;49.500;17.736;2022-10-13T08:17:00;17.20;;;9.67;;
3447;SDS011;1738;49.500;17.736;2022-10-13T08:19:26;21.93;;;10.77;;
3447;SDS011;1738;49.500;17.736;2022-10-13T08:21:52;13.20;;;9.00;;
3447;SDS011;1738;49.500;17.736;2022-10-13T08:24:18;16.43;;;8.63;;
3447;SDS011;1738;49.500;17.736;2022-10-13T08:26:44;15.50;;;9.70;;
3447;SDS011;1738;49.500;17.736;2022-10-13T08:29:10;15.57;;;9.83;;
3447;SDS011;1738;49.500;17.736;2022-10-13T08:31:37;15.07;;;9.63;;
3447;SDS011;1738;49.500;17.736;2022-10-13T08:34:02;19.70;;;11.00;;
3447;SDS011;1738;49.500;17.736;2022-10-13T08:36:28;16.80;;;10.60;;
3447;SDS011;1738;49.500;17.736;2022-10-13T08:38:54;15.33;;;10.47;;
3447;SDS011;1738;49.500;17.736;2022-10-13T08:41:23;12.90;;;9.50;;
3447;SDS011;1738;49.500;17.736;2022-10-13T08:43:48;17.13;;;10.37;;
3447;SDS011;1738;49.500;17.736;2022-10-13T08:46:13;17.10;;;10.43;;
3447;SDS011;1738;49.500;17.736;2022-10-13T08:48:39;14.20;;;9.50;;
3447;SDS011;1738;49.500;17.736;2022-10-13T08:51:05;18.57;;;10.83;;
3447;SDS011;1738;49.500;17.736;2022-10-13T08:53:32;16.20;;;9.80;;
3447;SDS011;1738;49.500;17.736;2022-10-13T08:56:01;15.63;;;10.57;;
3447;SDS011;1738;49.500;17.736;2022-10-13T08:58:27;13.53;;;9.67;;
3447;SDS011;1738;49.500;17.736;2022-10-13T09:03:26;13.30;;;9.30;;
3447;SDS011;1738;49.500;17.736;2022-10-13T09:05:56;19.98;;;10.70;;
3447;SDS011;1738;49.500;17.736;2022-10-13T09:08:18;16.60;;;9.57;;
3447;SDS011;1738;49.500;17.736;2022-10-13T09:10:49;13.03;;;9.90;;
3447;SDS011;1738;49.500;17.736;2022-10-13T09:13:14;16.87;;;11.50;;
3447;SDS011;1738;49.500;17.736;2022-10-13T09:15:44;17.70;;;9.60;;
3447;SDS011;1738;49.500;17.736;2022-10-13T09:18:09;16.90;;;9.90;;
3447;SDS011;1738;49.500;17.736;2022-10-13T09:20:34;15.60;;;10.10;;
3447;SDS011;1738;49.500;17.736;2022-10-13T09:23:01;16.10;;;10.37;;
3447;SDS011;1738;49.500;17.736;2022-10-13T09:25:26;17.03;;;10.67;;
3447;SDS011;1738;49.500;17.736;2022-10-13T09:27:53;12.73;;;10.70;;
3447;SDS011;1738;49.500;17.736;2022-10-13T09:30:34;21.43;;;11.77;;
3447;SDS011;1738;49.500;17.736;2022-10-13T09:33:20;12.90;;;8.87;;
3447;SDS011;1738;49.500;17.736;2022-10-13T09:35:45;15.17;;;9.33;;
3447;SDS011;1738;49.500;17.736;2022-10-13T09:38:13;15.10;;;10.37;;
3447;SDS011;1738;49.500;17.736;2022-10-13T09:40:38;14.87;;;9.57;;
3447;SDS011;1738;49.500;17.736;2022-10-13T09:43:05;12.97;;;9.37;;
3447;SDS011;1738;49.500;17.736;2022-10-13T09:45:29;18.20;;;10.20;;
3447;SDS011;1738;49.500;17.736;2022-10-13T09:47:56;17.60;;;10.67;;
3447;SDS011;1738;49.500;17.736;2022-10-13T09:50:23;12.50;;;8.23;;
3447;SDS011;1738;49.500;17.736;2022-10-13T09:52:48;11.93;;;8.37;;
3447;SDS011;1738;49.500;17.736;2022-10-13T09:57:45;14.20;;;10.40;;
3447;SDS011;1738;49.500;17.736;2022-10-13T10:00:19;12.33;;;8.87;;
3447;SDS011;1738;49.500;17.736;2022-10-13T10:02:45;12.40;;;9.50;;
3447;SDS011;1738;49.500;17.736;2022-10-13T10:05:17;14.10;;;8.63;;
3447;SDS011;1738;49.500;17.736;2022-10-13T10:07:40;17.27;;;7.70;;
3447;SDS011;1738;49.500;17.736;2022-10-13T10:10:13;11.87;;;8.47;;
3447;SDS011;1738;49.500;17.736;2022-10-13T10:12:33;17.87;;;9.18;;
3447;SDS011;1738;49.500;17.736;2022-10-13T10:14:58;20.13;;;8.70;;
3447;SDS011;1738;49.500;17.736;2022-10-13T10:17:27;11.97;;;8.83;;
3447;SDS011;1738;49.500;17.736;2022-10-13T10:20:31;11.00;;;8.07;;
3447;SDS011;1738;49.500;17.736;2022-10-13T10:22:38;10.73;;;9.20;;
3447;SDS011;1738;49.500;17.736;2022-10-13T10:25:07;11.77;;;8.70;;
3447;SDS011;1738;49.500;17.736;2022-10-13T10:27:32;12.20;;;9.00;;
3447;SDS011;1738;49.500;17.736;2022-10-13T10:30:00;15.23;;;10.37;;
3447;SDS011;1738;49.500;17.736;2022-10-13T10:32:26;21.50;;;11.07;;
3447;SDS011;1738;49.500;17.736;2022-10-13T10:34:52;20.57;;;11.93;;
3447;SDS011;1738;49.500;17.736;2022-10-13T10:37:19;16.97;;;11.10;;
3447;SDS011;1738;49.500;17.736;2022-10-13T10:39:48;18.70;;;11.27;;
3447;SDS011;1738;49.500;17.736;2022-10-13T10:42:22;15.97;;;11.43;;
3447;SDS011;1738;49.500;17.736;2022-10-13T10:44:45;15.10;;;10.50;;
3447;SDS011;1738;49.500;17.736;2022-10-13T10:47:17;16.10;;;12.40;;
3447;SDS011;1738;49.500;17.736;2022-10-13T10:49:40;15.23;;;12.00;;
3447;SDS011;1738;49.500;17.736;2022-10-13T10:52:09;17.47;;;12.40;;
3447;SDS011;1738;49.500;17.736;2022-10-13T10:54:40;23.30;;;13.43;;
3447;SDS011;1738;49.500;17.736;2022-10-13T10:57:08;22.80;;;14.00;;
3447;SDS011;1738;49.500;17.736;2022-10-13T11:02:14;18.30;;;13.25;;
3447;SDS011;1738;49.500;17.736;2022-10-13T11:04:44;21.07;;;13.47;;
3447;SDS011;1738;49.500;17.736;2022-10-13T11:07:12;18.03;;;12.70;;
3447;SDS011;1738;49.500;17.736;2022-10-13T11:12:23;20.30;;;13.70;;
3447;SDS011;1738;49.500;17.736;2022-10-13T11:15:24;15.90;;;12.80;;
3447;SDS011;1738;49.500;17.736;2022-10-13T11:17:32;17.03;;;13.27;;
3447;SDS011;1738;49.500;17.736;2022-10-13T11:19:58;16.50;;;13.03;;
3447;SDS011;1738;49.500;17.736;2022-10-13T11:22:25;19.97;;;14.10;;
3447;SDS011;1738;49.500;17.736;2022-10-13T11:24:50;22.93;;;15.60;;
3447;SDS011;1738;49.500;17.736;2022-10-13T11:29:57;22.93;;;14.93;;
3447;SDS011;1738;49.500;17.736;2022-10-13T11:35:21;19.40;;;13.80;;
3447;SDS011;1738;49.500;17.736;2022-10-13T11:38:01;20.73;;;15.50;;
3447;SDS011;1738;49.500;17.736;2022-10-13T11:40:31;20.80;;;15.10;;
3447;SDS011;1738;49.500;17.736;2022-10-13T11:42:59;21.03;;;14.03;;
3447;SDS011;1738;49.500;17.736;2022-10-13T11:45:31;23.63;;;15.60;;
3447;SDS011;1738;49.500;17.736;2022-10-13T11:48:00;25.23;;;15.67;;
3447;SDS011;1738;49.500;17.736;2022-10-13T11:52:58;19.10;;;14.00;;
3447;SDS011;1738;49.500;17.736;2022-10-13T11:55:25;21.90;;;14.60;;
3447;SDS011;1738;49.500;17.736;2022-10-13T11:57:46;21.70;;;15.37;;
3447;SDS011;1738;49.500;17.736;2022-10-13T12:00:12;19.67;;;15.77;;
3447;SDS011;1738;49.500;17.736;2022-10-13T12:02:45;20.40;;;16.67;;
3447;SDS011;1738;49.500;17.736;2022-10-13T12:05:05;26.07;;;16.83;;
3447;SDS011;1738;49.500;17.736;2022-10-13T12:07:32;20.93;;;16.70;;
3447;SDS011;1738;49.500;17.736;2022-10-13T12:09:56;29.20;;;18.73;;
3447;SDS011;1738;49.500;17.736;2022-10-13T12:12:22;18.23;;;14.80;;
3447;SDS011;1738;49.500;17.736;2022-10-13T12:14:49;27.87;;;16.53;;
3447;SDS011;1738;49.500;17.736;2022-10-13T12:17:21;19.57;;;16.80;;
3447;SDS011;1738;49.500;17.736;2022-10-13T12:19:46;23.70;;;16.98;;
3447;SDS011;1738;49.500;17.736;2022-10-13T12:22:12;26.07;;;17.07;;
3447;SDS011;1738;49.500;17.736;2022-10-13T12:24:37;26.70;;;17.80;;
3447;SDS011;1738;49.500;17.736;2022-10-13T12:27:15;30.60;;;19.00;;
3447;SDS011;1738;49.500;17.736;2022-10-13T12:29:39;27.03;;;17.47;;
3447;SDS011;1738;49.500;17.736;2022-10-13T12:34:37;27.83;;;19.63;;
3447;SDS011;1738;49.500;17.736;2022-10-13T12:37:06;24.67;;;18.23;;
3447;SDS011;1738;49.500;17.736;2022-10-13T12:39:30;26.83;;;17.93;;
3447;SDS011;1738;49.500;17.736;2022-10-13T12:41:55;21.97;;;17.63;;
3447;SDS011;1738;49.500;17.736;2022-10-13T12:44:24;20.90;;;17.87;;
3447;SDS011;1738;49.500;17.736;2022-10-13T12:46:49;22.60;;;16.60;;
3447;SDS011;1738;49.500;17.736;2022-10-13T12:49:24;27.53;;;18.33;;
3447;SDS011;1738;49.500;17.736;2022-10-13T12:51:53;31.40;;;17.50;;
3447;SDS011;1738;49.500;17.736;2022-10-13T12:54:19;27.55;;;19.75;;
3447;SDS011;1738;49.500;17.736;2022-10-13T12:56:44;26.47;;;17.57;;
3447;SDS011;1738;49.500;17.736;2022-10-13T12:59:15;23.20;;;18.63;;
3447;SDS011;1738;49.500;17.736;2022-10-13T13:01:41;26.77;;;20.00;;
3447;SDS011;1738;49.500;17.736;2022-10-13T13:06:38;28.30;;;18.43;;
3447;SDS011;1738;49.500;17.736;2022-10-13T13:09:13;29.87;;;19.57;;
3447;SDS011;1738;49.500;17.736;2022-10-13T13:11:34;22.75;;;18.70;;
3447;SDS011;1738;49.500;17.736;2022-10-13T13:16:30;27.50;;;19.13;;
3447;SDS011;1738;49.500;17.736;2022-10-13T13:18:56;28.20;;;20.90;;
3447;SDS011;1738;49.500;17.736;2022-10-13T13:21:22;32.13;;;19.47;;
3447;SDS011;1738;49.500;17.736;2022-10-13T13:23:48;26.30;;;19.80;;
3447;SDS011;1738;49.500;17.736;2022-10-13T13:26:16;29.73;;;19.47;;
3447;SDS011;1738;49.500;17.736;2022-10-13T13:28:44;24.03;;;19.03;;
3447;SDS011;1738;49.500;17.736;2022-10-13T13:31:09;25.40;;;19.50;;
3447;SDS011;1738;49.500;17.736;2022-10-13T13:33:34;28.07;;;19.57;;
3447;SDS011;1738;49.500;17.736;2022-10-13T13:36:00;24.70;;;18.17;;
3447;SDS011;1738;49.500;17.736;2022-10-13T13:38:26;24.52;;;20.02;;
3447;SDS011;1738;49.500;17.736;2022-10-13T13:40:51;25.83;;;20.50;;
3447;SDS011;1738;49.500;17.736;2022-10-13T13:43:17;25.10;;;20.10;;
3447;SDS011;1738;49.500;17.736;2022-10-13T13:45:43;24.90;;;18.73;;
3447;SDS011;1738;49.500;17.736;2022-10-13T13:48:10;30.90;;;21.67;;
3447;SDS011;1738;49.500;17.736;2022-10-13T13:50:35;27.83;;;20.03;;
3447;SDS011;1738;49.500;17.736;2022-10-13T13:53:01;27.73;;;20.27;;
3447;SDS011;1738;49.500;17.736;2022-10-13T13:55:27;29.03;;;20.80;;
3447;SDS011;1738;49.500;17.736;2022-10-13T13:57:52;28.80;;;19.80;;
3447;SDS011;1738;49.500;17.736;2022-10-13T14:00:18;28.80;;;20.10;;
3447;SDS011;1738;49.500;17.736;2022-10-13T14:02:44;28.03;;;20.30;;
3447;SDS011;1738;49.500;17.736;2022-10-13T14:05:10;32.80;;;19.90;;
3447;SDS011;1738;49.500;17.736;2022-10-13T14:07:36;30.70;;;19.70;;
3447;SDS011;1738;49.500;17.736;2022-10-13T14:10:02;31.33;;;18.93;;
3447;SDS011;1738;49.500;17.736;2022-10-13T14:12:28;33.00;;;19.80;;
3447;SDS011;1738;49.500;17.736;2022-10-13T14:14:54;29.97;;;19.57;;
3447;SDS011;1738;49.500;17.736;2022-10-13T14:17:19;25.97;;;20.10;;
3447;SDS011;1738;49.500;17.736;2022-10-13T14:19:45;29.40;;;19.53;;
3447;SDS011;1738;49.500;17.736;2022-10-13T14:22:11;26.77;;;19.40;;
3447;SDS011;1738;49.500;17.736;2022-10-13T14:24:37;34.73;;;20.13;;
3447;SDS011;1738;49.500;17.736;2022-10-13T14:27:03;26.30;;;21.47;;
3447;SDS011;1738;49.500;17.736;2022-10-13T14:29:29;31.90;;;19.30;;
3447;SDS011;1738;49.500;17.736;2022-10-13T14:31:56;31.57;;;20.40;;
3447;SDS011;1738;49.500;17.736;2022-10-13T14:34:22;24.20;;;19.83;;
3447;SDS011;1738;49.500;17.736;2022-10-13T14:36:47;30.37;;;20.27;;
3447;SDS011;1738;49.500;17.736;2022-10-13T14:39:13;43.57;;;23.70;;
3447;SDS011;1738;49.500;17.736;2022-10-13T14:41:39;31.13;;;20.47;;
3447;SDS011;1738;49.500;17.736;2022-10-13T14:44:05;31.33;;;20.87;;
3447;SDS011;1738;49.500;17.736;2022-10-13T14:46:31;32.03;;;21.50;;
3447;SDS011;1738;49.500;17.736;2022-10-13T14:48:57;33.03;;;22.53;;
3447;SDS011;1738;49.500;17.736;2022-10-13T14:51:23;31.23;;;21.80;;
3447;SDS011;1738;49.500;17.736;2022-10-13T14:53:48;28.30;;;19.73;;
3447;SDS011;1738;49.500;17.736;2022-10-13T14:56:21;28.17;;;22.53;;
3447;SDS011;1738;49.500;17.736;2022-10-13T14:58:46;31.67;;;22.97;;
3447;SDS011;1738;49.500;17.736;2022-10-13T15:01:12;29.47;;;19.13;;
3447;SDS011;1738;49.500;17.736;2022-10-13T15:03:38;29.17;;;21.80;;